Terminal Aerodrome Forecast
Issued by NWS

Home | Current Version | Previous Version | Text Only | Print | Product List | Glossary Off
Versions: 1 2 3 4 5 6 7 8 9 10 11 12 13 14 15 16 17

000
FTUS43 KBIS 261100
TAFJMS
TAF
KJMS 261125Z 2612/2712 21006KT P6SM SCT006
     FM261300 28009KT P6SM SCT006
     FM261600 29015G25KT P6SM SKC
     FM261900 28022G32KT P6SM SCT050 SCT080
     FM270200 31015KT P6SM BKN050=

USA.gov is the U.S. government's official web portal to all federal, state and local government web resources and services.